Time;durP1;ratioP1;P1;durP2;ratioP2;P2;SDS_P1;SDS_P2;PMS_P1;PMS_P2;Temp;Humidity;BMP_temperature;BMP_pressure;BME280_temperature;BME280_humidity;BME280_pressure;Samples;Min_cycle;Max_cycle;Signal;HPM_P1;HPM_P2
2024/04/04 00:02:24;;;;;;;8.07;1.70;;;;;;;8.32;100.00;100519.69;5036245;28;20038;-74
2024/04/04 00:05:02;;;;;;;6.32;1.30;;;;;;;8.26;100.00;100523.66;5025941;28;20037;-75
2024/04/04 00:07:28;;;;;;;4.45;1.27;;;;;;;8.32;100.00;100517.91;5031482;28;20122;-74
2024/04/04 00:09:53;;;;;;;7.38;1.65;;;;;;;8.24;100.00;100510.09;5021686;28;20040;-75
2024/04/04 00:12:20;;;;;;;8.00;1.30;;;;;;;8.21;100.00;100510.38;5022278;28;20026;-75
2024/04/04 00:14:48;;;;;;;3.83;0.90;;;;;;;8.17;100.00;100512.47;5040739;28;20041;-75
2024/04/04 00:17:14;;;;;;;3.88;0.90;;;;;;;8.18;100.00;100511.50;5018397;28;20037;-75
2024/04/04 00:19:40;;;;;;;6.00;1.08;;;;;;;8.12;100.00;100503.53;5023252;28;20104;-75
2024/04/04 00:22:05;;;;;;;9.25;1.55;;;;;;;8.07;100.00;100509.13;5028088;28;20041;-76
2024/04/04 00:24:31;;;;;;;4.53;1.02;;;;;;;8.06;100.00;100507.50;5023912;28;20492;-74
2024/04/04 00:26:56;;;;;;;6.55;2.50;;;;;;;8.02;100.00;100502.78;5027339;28;20045;-75
2024/04/04 00:29:22;;;;;;;8.88;1.55;;;;;;;7.97;100.00;100498.06;5016824;28;20037;-75
2024/04/04 00:31:47;;;;;;;6.10;1.42;;;;;;;7.94;100.00;100483.66;5014733;28;20032;-75
2024/04/04 00:34:13;;;;;;;11.27;1.20;;;;;;;7.92;100.00;100485.56;5023140;28;20033;-75
2024/04/04 00:36:38;;;;;;;6.47;1.00;;;;;;;7.90;100.00;100484.09;5031781;28;20061;-77
2024/04/04 00:39:04;;;;;;;7.07;1.10;;;;;;;7.88;100.00;100484.25;5023408;28;20041;-75
2024/04/04 00:41:30;;;;;;;7.80;1.60;;;;;;;7.87;100.00;100476.63;5035721;28;20033;-74
2024/04/04 00:43:55;;;;;;;7.00;1.52;;;;;;;7.84;100.00;100475.16;5031608;28;20576;-75
2024/04/04 00:46:21;;;;;;;4.20;1.00;;;;;;;7.84;100.00;100476.94;5029654;28;20037;-74
2024/04/04 00:48:47;;;;;;;6.75;1.55;;;;;;;7.82;100.00;100474.50;5027540;28;20116;-74
2024/04/04 00:51:12;;;;;;;10.95;1.73;;;;;;;7.83;100.00;100470.94;5026700;28;20037;-75
2024/04/04 00:53:38;;;;;;;5.82;1.30;;;;;;;7.85;100.00;100470.81;5023721;28;20022;-75
2024/04/04 00:56:03;;;;;;;2.88;0.90;;;;;;;7.88;100.00;100465.38;5023341;28;20030;-74
2024/04/04 00:58:29;;;;;;;8.63;1.27;;;;;;;7.90;100.00;100461.66;5009773;28;20025;-75
2024/04/04 01:00:54;;;;;;;15.38;1.80;;;;;;;7.96;100.00;100453.34;5014328;28;20519;-76
2024/04/04 01:03:20;;;;;;;9.73;1.17;;;;;;;8.02;100.00;100456.28;5027484;28;20029;-75
2024/04/04 01:05:45;;;;;;;6.75;1.02;;;;;;;8.10;100.00;100449.44;5028687;28;20415;-74
2024/04/04 01:08:12;;;;;;;6.05;1.40;;;;;;;8.13;100.00;100438.00;5040730;28;20026;-76
2024/04/04 01:10:39;;;;;;;7.05;1.42;;;;;;;8.03;100.00;100432.91;5027035;28;20774;-74
2024/04/04 01:13:05;;;;;;;12.23;1.38;;;;;;;8.15;100.00;100428.31;5029041;28;20044;-74
2024/04/04 01:15:30;;;;;;;4.65;1.13;;;;;;;8.14;100.00;100424.94;5026529;28;20037;-74
2024/04/04 01:17:58;;;;;;;12.07;1.92;;;;;;;8.18;100.00;100423.66;5028966;28;20032;-74
2024/04/04 01:20:25;;;;;;;7.03;1.40;;;;;;;8.11;100.00;100422.63;5031681;28;20033;-74
2024/04/04 01:22:50;;;;;;;7.10;1.13;;;;;;;8.19;100.00;100416.72;5024984;28;20033;-74
2024/04/04 01:25:16;;;;;;;10.35;1.38;;;;;;;8.18;100.00;100410.75;5029642;28;20056;-74
2024/04/04 01:27:41;;;;;;;9.45;1.38;;;;;;;8.30;100.00;100400.19;5027521;28;20516;-74
2024/04/04 01:30:07;;;;;;;11.77;1.60;;;;;;;8.37;100.00;100401.22;5022356;28;20033;-74
2024/04/04 01:32:32;;;;;;;9.00;1.08;;;;;;;8.32;100.00;100399.06;5011607;28;20032;-74
2024/04/04 01:34:58;;;;;;;9.38;1.67;;;;;;;8.29;100.00;100399.38;5016356;28;20559;-74
2024/04/04 01:37:23;;;;;;;9.25;1.00;;;;;;;8.29;100.00;100399.38;5028365;28;20036;-75
2024/04/04 01:39:49;;;;;;;11.93;1.60;;;;;;;8.33;100.00;100385.19;5030319;28;20052;-75
2024/04/04 01:42:14;;;;;;;8.65;1.10;;;;;;;8.47;100.00;100388.22;5026441;28;20026;-74
2024/04/04 01:44:40;;;;;;;13.02;1.48;;;;;;;8.54;100.00;100382.28;5027011;28;20033;-75
2024/04/04 01:47:05;;;;;;;6.28;1.73;;;;;;;8.55;100.00;100388.25;5027408;28;20033;-75
2024/04/04 01:49:30;;;;;;;8.95;1.33;;;;;;;8.63;100.00;100383.16;5024639;28;20048;-74
2024/04/04 01:51:56;;;;;;;12.52;2.00;;;;;;;8.66;100.00;100382.03;5028543;28;20137;-75
2024/04/04 01:54:21;;;;;;;11.13;2.35;;;;;;;8.61;100.00;100379.09;5028352;28;20037;-75
2024/04/04 01:56:47;;;;;;;8.77;1.30;;;;;;;8.62;100.00;100376.34;5028639;28;20056;-75
2024/04/04 01:59:12;;;;;;;6.47;1.55;;;;;;;8.64;100.00;100374.41;5025139;28;20025;-74
2024/04/04 02:01:38;;;;;;;3.83;0.95;;;;;;;8.75;100.00;100368.97;5027756;28;20052;-74
2024/04/04 02:04:03;;;;;;;6.57;2.00;;;;;;;8.71;100.00;100370.25;5033981;28;20045;-75
2024/04/04 02:06:29;;;;;;;8.02;1.08;;;;;;;8.72;100.00;100373.66;5025204;28;20053;-74
2024/04/04 02:08:54;;;;;;;7.13;1.15;;;;;;;8.75;100.00;100360.44;5024325;28;20745;-74
2024/04/04 02:11:19;;;;;;;6.32;1.20;;;;;;;8.84;100.00;100354.31;5018619;28;20040;-73
2024/04/04 02:13:46;;;;;;;7.47;0.88;;;;;;;8.87;100.00;100355.78;5022273;28;20083;-75
2024/04/04 02:16:12;;;;;;;5.75;1.08;;;;;;;8.92;100.00;100359.53;5026170;28;20396;-74
2024/04/04 02:18:37;;;;;;;6.82;0.77;;;;;;;8.98;100.00;100352.13;5031726;28;20033;-74
2024/04/04 02:21:04;;;;;;;5.57;0.90;;;;;;;9.17;100.00;100346.66;5027423;28;20051;-74
2024/04/04 02:23:30;;;;;;;8.50;0.90;;;;;;;9.06;100.00;100347.78;5025084;28;20029;-74
2024/04/04 02:25:56;;;;;;;3.60;0.80;;;;;;;8.98;100.00;100342.56;5033968;28;20106;-75
2024/04/04 02:28:22;;;;;;;7.65;1.20;;;;;;;9.04;100.00;100341.97;5018253;28;20037;-75
2024/04/04 02:30:47;;;;;;;9.18;1.00;;;;;;;8.98;100.00;100337.41;5025439;28;20030;-75
2024/04/04 02:33:13;;;;;;;5.95;0.98;;;;;;;9.00;100.00;100332.06;5023874;28;20068;-74
2024/04/04 02:35:39;;;;;;;9.15;1.00;;;;;;;9.00;100.00;100332.88;5024378;28;20070;-75
2024/04/04 02:38:06;;;;;;;6.40;1.00;;;;;;;8.94;100.00;100330.94;5023575;28;20057;-75
2024/04/04 02:40:32;;;;;;;6.53;1.40;;;;;;;9.03;100.00;100324.00;5030433;28;20496;-75
2024/04/04 02:42:57;;;;;;;11.43;1.67;;;;;;;9.04;100.00;100320.44;5027864;28;20084;-75
2024/04/04 02:45:22;;;;;;;7.60;2.22;;;;;;;8.99;100.00;100326.09;5032231;28;20504;-74
2024/04/04 02:47:48;;;;;;;5.80;0.85;;;;;;;8.93;100.00;100314.63;5031412;28;20067;-74
2024/04/04 02:50:14;;;;;;;4.75;1.65;;;;;;;9.00;100.00;100312.19;5025716;28;20084;-75
2024/04/04 02:52:39;;;;;;;4.57;1.10;;;;;;;8.95;100.00;100309.28;5028399;28;20476;-76
2024/04/04 02:55:05;;;;;;;7.00;1.23;;;;;;;8.97;100.00;100307.34;5028746;28;20033;-74
2024/04/04 02:57:31;;;;;;;4.53;1.05;;;;;;;8.99;100.00;100302.03;5033940;28;20036;-75
2024/04/04 02:59:56;;;;;;;7.57;1.85;;;;;;;9.07;100.00;100295.09;5025099;28;20049;-74
2024/04/04 03:02:22;;;;;;;4.03;1.65;;;;;;;8.99;100.00;100286.50;5026904;28;20037;-74
2024/04/04 03:04:48;;;;;;;7.60;1.33;;;;;;;9.02;100.00;100281.81;5025522;28;20048;-74
2024/04/04 03:07:13;;;;;;;5.30;0.90;;;;;;;8.92;100.00;100281.94;5032917;28;20139;-74
2024/04/04 03:09:39;;;;;;;8.38;1.30;;;;;;;8.93;100.00;100277.59;5021278;28;20086;-74
2024/04/04 03:12:04;;;;;;;11.85;1.10;;;;;;;9.00;100.00;100277.78;5024432;28;20025;-74
2024/04/04 03:14:30;;;;;;;3.65;1.58;;;;;;;9.03;100.00;100272.28;5024289;28;20031;-74
2024/04/04 03:16:55;;;;;;;9.45;2.10;;;;;;;9.02;100.00;100273.25;5017766;28;20040;-74
2024/04/04 03:19:21;;;;;;;3.05;0.98;;;;;;;9.03;100.00;100272.28;5022397;28;20034;-74
2024/04/04 03:21:46;;;;;;;5.38;1.02;;;;;;;9.02;100.00;100263.69;5029764;28;20037;-74
2024/04/04 03:24:12;;;;;;;5.65;1.70;;;;;;;9.11;100.00;100262.75;5024384;28;20037;-74
2024/04/04 03:26:37;;;;;;;8.45;1.20;;;;;;;9.06;100.00;100249.50;5030427;28;20075;-75
2024/04/04 03:29:02;;;;;;;7.18;1.05;;;;;;;9.03;100.00;100251.59;5024964;28;20037;-74
2024/04/04 03:31:28;;;;;;;5.10;1.20;;;;;;;9.13;100.00;100252.25;5029091;28;20044;-75
2024/04/04 03:33:54;;;;;;;5.20;1.25;;;;;;;9.10;100.00;100240.47;5010994;28;20028;-74
2024/04/04 03:36:20;;;;;;;6.35;1.45;;;;;;;9.11;100.00;100241.25;5007476;28;20124;-74
2024/04/04 03:38:46;;;;;;;7.43;1.35;;;;;;;9.16;100.00;100239.81;5028856;28;20034;-75
2024/04/04 03:41:11;;;;;;;16.85;1.92;;;;;;;9.19;100.00;100225.75;5025471;28;20044;-74
2024/04/04 03:43:37;;;;;;;7.57;1.40;;;;;;;9.27;100.00;100224.97;5022174;28;20460;-74
2024/04/04 03:46:06;;;;;;;9.68;1.42;;;;;;;9.24;100.00;100215.72;5024949;28;20930;-75
2024/04/04 03:48:33;;;;;;;7.93;1.20;;;;;;;9.24;100.00;100214.91;5011972;28;20071;-75
2024/04/04 03:50:59;;;;;;;6.70;1.30;;;;;;;9.23;100.00;100211.53;5019208;28;20041;-75
2024/04/04 03:53:24;;;;;;;6.22;1.30;;;;;;;9.31;100.00;100206.34;5026509;28;20032;-74
2024/04/04 03:55:50;;;;;;;8.07;1.20;;;;;;;9.23;100.00;100211.53;5030269;28;20049;-74
2024/04/04 03:58:25;;;;;;;8.10;1.30;;;;;;;9.23;100.00;100202.94;5021001;28;20400;-76
2024/04/04 04:00:51;;;;;;;7.97;1.23;;;;;;;9.26;100.00;100200.84;5022580;28;20053;-74
2024/04/04 04:03:17;;;;;;;7.35;1.65;;;;;;;9.32;100.00;100202.81;5030515;28;20106;-74
2024/04/04 04:05:42;;;;;;;3.75;1.10;;;;;;;9.25;100.00;100201.00;5027418;28;20045;-74
2024/04/04 04:08:07;;;;;;;7.47;1.75;;;;;;;9.26;100.00;100194.88;5027668;28;20041;-73
2024/04/04 04:10:33;;;;;;;12.25;2.45;;;;;;;9.41;100.00;100193.25;5008899;28;20041;-74
2024/04/04 04:12:58;;;;;;;4.90;1.60;;;;;;;9.47;100.00;100189.19;5010267;28;20038;-73
2024/04/04 04:15:25;;;;;;;5.68;1.40;;;;;;;9.53;100.00;100185.94;5008035;28;20095;-73
2024/04/04 04:17:51;;;;;;;5.85;1.88;;;;;;;9.42;100.00;100181.94;5013977;28;20358;-73
2024/04/04 04:23:03;;;;;;;9.52;1.40;;;;;;;9.46;100.00;100180.63;5019992;28;20042;-74
2024/04/04 04:25:29;;;;;;;5.55;1.17;;;;;;;9.46;100.00;100180.63;5022799;28;20049;-73
2024/04/04 04:27:54;;;;;;;8.70;1.48;;;;;;;9.35;100.00;100174.00;5019213;28;20034;-73
2024/04/04 04:30:20;;;;;;;5.25;1.48;;;;;;;9.54;100.00;100179.81;5023354;28;20037;-73
2024/04/04 04:32:45;;;;;;;8.07;1.20;;;;;;;9.53;100.00;100173.84;5015117;28;20051;-73
2024/04/04 04:35:11;;;;;;;4.50;1.52;;;;;;;9.55;100.00;100179.66;5029199;28;20048;-73
2024/04/04 04:37:37;;;;;;;6.45;1.35;;;;;;;9.51;100.00;100175.78;5032145;28;20059;-73
2024/04/04 04:40:03;;;;;;;7.13;1.25;;;;;;;9.60;100.00;100178.34;5032936;28;20186;-73
2024/04/04 04:42:29;;;;;;;7.20;1.75;;;;;;;9.69;100.00;100165.22;5025551;28;20037;-73
2024/04/04 04:44:54;;;;;;;6.60;1.38;;;;;;;9.66;100.00;100173.34;5031797;28;20040;-73
2024/04/04 04:47:20;;;;;;;6.10;1.42;;;;;;;9.72;100.00;100164.09;5033003;28;20415;-73
2024/04/04 04:49:46;;;;;;;6.15;1.58;;;;;;;9.72;100.00;100166.69;5011168;28;20044;-73
2024/04/04 04:52:12;;;;;;;5.32;1.85;;;;;;;9.85;100.00;100160.97;5027773;28;20029;-74
2024/04/04 04:54:37;;;;;;;12.32;1.50;;;;;;;9.73;100.00;100155.34;5041276;28;20504;-73
2024/04/04 04:57:02;;;;;;;5.50;1.38;;;;;;;9.80;100.00;100150.31;5023488;28;20034;-73
2024/04/04 04:59:28;;;;;;;8.38;2.35;;;;;;;9.84;100.00;100154.97;5029817;28;20033;-73
2024/04/04 05:01:54;;;;;;;9.55;1.42;;;;;;;9.91;100.00;100147.38;5025939;28;20439;-74
2024/04/04 05:04:20;;;;;;;9.65;1.50;;;;;;;9.89;100.00;100144.94;5036213;28;20040;-73
2024/04/04 05:06:46;;;;;;;10.75;1.52;;;;;;;9.84;100.00;100141.25;5030985;28;20041;-73
2024/04/04 05:09:13;;;;;;;7.65;1.42;;;;;;;9.87;100.00;100131.34;5013333;28;20041;-73
2024/04/04 05:11:38;;;;;;;9.60;1.60;;;;;;;9.99;100.00;100138.75;5028121;28;20141;-73
2024/04/04 05:14:04;;;;;;;11.35;2.08;;;;;;;10.01;100.00;100131.63;5031902;28;20100;-73
2024/04/04 05:16:30;;;;;;;10.90;1.80;;;;;;;10.06;100.00;100131.94;5032671;28;20033;-73
2024/04/04 05:18:55;;;;;;;11.73;2.97;;;;;;;10.01;100.00;100124.66;5012483;28;20501;-73
2024/04/04 05:21:20;;;;;;;8.00;1.70;;;;;;;10.11;100.00;100124.44;5029245;28;20306;-74
2024/04/04 05:23:46;;;;;;;8.02;1.50;;;;;;;10.22;100.00;100125.84;5026337;28;20566;-74
2024/04/04 05:26:12;;;;;;;7.28;1.52;;;;;;;10.06;100.00;100113.81;5029593;28;20090;-74
2024/04/04 05:28:38;;;;;;;7.88;1.42;;;;;;;10.05;100.00;100119.94;5030470;28;20033;-74
2024/04/04 05:31:04;;;;;;;7.70;1.65;;;;;;;10.07;100.00;100112.81;5024376;28;20075;-74
2024/04/04 05:33:30;;;;;;;7.93;1.67;;;;;;;10.09;100.00;100110.84;5030357;28;20037;-74
2024/04/04 05:35:55;;;;;;;5.10;1.75;;;;;;;10.17;100.00;100117.78;5021261;28;20037;-74
2024/04/04 05:38:21;;;;;;;7.93;1.58;;;;;;;10.18;100.00;100114.22;5030812;28;20040;-74
2024/04/04 05:40:47;;;;;;;6.15;1.73;;;;;;;10.19;100.00;100111.47;5028392;28;20048;-74
2024/04/04 05:43:12;;;;;;;11.93;1.48;;;;;;;10.32;100.00;100113.50;5039127;28;20032;-74
2024/04/04 05:45:38;;;;;;;8.65;1.75;;;;;;;10.19;100.00;100105.47;5022134;28;20034;-73
2024/04/04 05:48:04;;;;;;;8.40;1.60;;;;;;;10.17;100.00;100116.03;5010133;28;20159;-74
2024/04/04 05:50:29;;;;;;;11.73;2.42;;;;;;;10.22;100.00;100112.91;5029623;28;20041;-74
2024/04/04 05:52:54;;;;;;;12.98;1.77;;;;;;;10.33;100.00;100109.97;5024426;28;20503;-74
2024/04/04 05:55:20;;;;;;;9.63;2.28;;;;;;;10.28;100.00;100115.63;5028545;28;20507;-74
2024/04/04 05:57:45;;;;;;;9.13;2.53;;;;;;;10.39;100.00;100101.50;5028120;28;20478;-74
2024/04/04 06:00:12;;;;;;;13.90;2.17;;;;;;;10.38;100.00;100096.47;5024647;28;20046;-74
2024/04/04 06:02:40;;;;;;;7.80;1.60;;;;;;;10.33;100.00;100105.56;5026959;28;20079;-74
2024/04/04 06:05:06;;;;;;;12.70;2.13;;;;;;;10.34;100.00;100101.22;5020066;28;20111;-74
2024/04/04 06:07:33;;;;;;;13.20;2.05;;;;;;;10.39;100.00;100098.09;5010226;28;20031;-74
2024/04/04 06:09:58;;;;;;;16.30;2.78;;;;;;;10.45;100.00;100095.66;5017216;28;20033;-74
2024/04/04 06:12:24;;;;;;;8.30;1.60;;;;;;;10.37;100.00;100087.91;5027452;28;20033;-74
2024/04/04 06:14:49;;;;;;;10.13;1.77;;;;;;;10.42;100.00;100087.41;5032451;28;20048;-74
2024/04/04 06:17:14;;;;;;;14.05;2.10;;;;;;;10.42;100.00;100088.19;5028965;28;20029;-74
2024/04/04 06:19:40;;;;;;;12.93;2.05;;;;;;;10.37;100.00;100081.91;5007361;28;20505;-73
2024/04/04 06:22:05;;;;;;;16.98;1.98;;;;;;;10.47;100.00;100080.72;5031379;28;20026;-74
2024/04/04 06:24:31;;;;;;;9.88;1.90;;;;;;;10.49;100.00;100078.75;5031064;28;20040;-74
2024/04/04 06:26:56;;;;;;;10.57;2.28;;;;;;;10.48;100.00;100082.31;5031229;28;20519;-73
2024/04/04 06:29:23;;;;;;;11.18;2.47;;;;;;;10.48;100.00;100065.97;5019601;28;20033;-74
2024/04/04 06:31:49;;;;;;;14.05;2.25;;;;;;;10.60;100.00;100074.13;5026596;28;20065;-74
2024/04/04 06:34:16;;;;;;;5.78;1.77;;;;;;;10.60;100.00;100072.34;5030563;28;20033;-74
2024/04/04 06:36:45;;;;;;;17.23;2.00;;;;;;;10.59;100.00;100075.13;5021960;28;20057;-73
2024/04/04 06:39:12;;;;;;;15.32;2.30;;;;;;;10.62;100.00;100067.00;5023494;28;20120;-74
2024/04/04 06:41:38;;;;;;;15.43;1.98;;;;;;;10.60;100.00;100067.16;5026733;28;20148;-75
2024/04/04 06:44:04;;;;;;;7.68;2.10;;;;;;;10.57;100.00;100064.94;5025888;28;20048;-75
2024/04/04 06:46:29;;;;;;;13.10;1.77;;;;;;;10.66;100.00;100063.91;5026330;28;20046;-74
2024/04/04 06:48:54;;;;;;;11.65;2.00;;;;;;;10.68;100.00;100058.50;5031115;28;20029;-74
2024/04/04 06:51:21;;;;;;;11.82;2.13;;;;;;;10.71;100.00;100077.13;5023569;28;20091;-74
2024/04/04 06:53:46;;;;;;;11.88;1.90;;;;;;;10.79;100.00;100063.28;5025514;28;20029;-75
2024/04/04 06:56:12;;;;;;;7.05;1.52;;;;;;;10.70;100.00;100067.75;5030289;28;20091;-74
2024/04/04 06:58:37;;;;;;;9.35;1.60;;;;;;;10.71;100.00;100058.16;5032023;28;20079;-74
2024/04/04 07:01:03;;;;;;;8.27;1.42;;;;;;;10.64;100.00;100062.44;5024719;28;20500;-74
2024/04/04 07:03:29;;;;;;;5.15;1.50;;;;;;;10.64;100.00;100065.84;5024851;28;20115;-74
2024/04/04 07:05:54;;;;;;;6.43;1.40;;;;;;;10.67;100.00;100059.50;5030463;28;20037;-74
2024/04/04 07:08:20;;;;;;;6.65;1.40;;;;;;;10.80;100.00;100059.72;5010750;28;20029;-74
2024/04/04 07:10:46;;;;;;;7.18;1.23;;;;;;;10.77;100.00;100059.25;5033889;28;20417;-74
2024/04/04 07:13:13;;;;;;;6.97;1.45;;;;;;;10.75;100.00;100063.81;5020033;28;20447;-74
2024/04/04 07:15:39;;;;;;;8.00;2.40;;;;;;;10.71;100.00;100055.56;5028217;28;20117;-75
2024/04/04 07:18:09;;;;;;;10.07;1.77;;;;;;;10.72;100.00;100054.59;5027164;28;20117;-75
2024/04/04 07:20:35;;;;;;;8.23;1.40;;;;;;;10.82;100.00;100052.56;5026935;28;20183;-75
2024/04/04 07:23:01;;;;;;;7.95;2.58;;;;;;;10.88;100.00;100054.44;5025895;28;20200;-74
2024/04/04 07:25:28;;;;;;;7.35;1.40;;;;;;;10.98;100.00;100067.19;5037889;28;20128;-74
2024/04/04 07:27:53;;;;;;;6.32;1.38;;;;;;;11.16;100.00;100092.00;5024356;28;20122;-74
2024/04/04 07:30:19;;;;;;;8.85;1.23;;;;;;;11.10;100.00;100076.16;5039628;28;20033;-74
2024/04/04 07:32:45;;;;;;;13.98;1.88;;;;;;;11.04;100.00;100076.06;5026534;28;20025;-76
2024/04/04 07:35:10;;;;;;;5.00;0.88;;;;;;;10.92;100.00;100080.84;5028196;28;20603;-75
2024/04/04 07:37:36;;;;;;;4.68;0.70;;;;;;;10.92;100.00;100093.81;5032575;28;20301;-75
2024/04/04 07:40:01;;;;;;;6.50;0.82;;;;;;;10.95;100.00;100080.50;5016006;28;20041;-75
2024/04/04 07:42:27;;;;;;;2.15;0.77;;;;;;;11.02;100.00;100080.59;5027710;28;20037;-74
2024/04/04 07:44:53;;;;;;;6.68;0.47;;;;;;;11.07;100.00;100079.09;5025531;28;20062;-74
2024/04/04 07:47:18;;;;;;;1.92;0.30;;;;;;;10.99;100.00;100081.75;5021134;28;20026;-74
2024/04/04 07:49:43;;;;;;;0.70;0.38;;;;;;;10.99;100.00;100092.13;5020182;28;20098;-75
2024/04/04 07:52:09;;;;;;;5.97;0.43;;;;;;;11.07;100.00;100088.66;5028165;28;20057;-74
2024/04/04 07:54:35;;;;;;;1.15;0.50;;;;;;;11.13;100.00;100085.34;5018640;28;20392;-74
2024/04/04 07:57:00;;;;;;;4.82;0.63;;;;;;;11.04;100.00;100087.22;5036997;28;20040;-74
2024/04/04 07:59:26;;;;;;;0.93;0.30;;;;;;;11.02;100.00;100075.41;5017141;28;20034;-75
2024/04/04 08:01:53;;;;;;;2.30;0.40;;;;;;;10.97;100.00;100070.75;5015115;28;20033;-74
2024/04/04 08:04:18;;;;;;;5.25;0.40;;;;;;;10.99;100.00;100035.06;5024527;28;20120;-74
2024/04/04 08:06:44;;;;;;;3.70;0.40;;;;;;;11.10;100.00;100065.75;5025808;28;20041;-75
2024/04/04 08:09:09;;;;;;;3.30;0.52;;;;;;;10.99;100.00;100076.56;5032831;28;20036;-74
2024/04/04 08:11:35;;;;;;;2.20;0.40;;;;;;;10.94;100.00;100065.13;5030423;28;20044;-74
2024/04/04 08:14:03;;;;;;;3.50;1.02;;;;;;;10.98;100.00;100053.41;5046713;28;20029;-73
2024/04/04 08:16:29;;;;;;;1.17;0.55;;;;;;;10.88;100.00;100043.28;5042533;28;20529;-74
2024/04/04 08:18:55;;;;;;;2.85;0.60;;;;;;;10.85;100.00;100057.41;5028378;28;20092;-75
2024/04/04 08:21:21;;;;;;;3.03;0.60;;;;;;;10.98;100.00;100066.38;5029167;28;20037;-74
2024/04/04 08:23:46;;;;;;;4.38;1.10;;;;;;;10.95;100.00;100095.28;5035575;28;20426;-75
2024/04/04 08:26:12;;;;;;;2.92;0.50;;;;;;;10.99;100.00;100088.75;5028658;28;20041;-74
2024/04/04 08:28:38;;;;;;;1.92;0.60;;;;;;;11.06;100.00;100105.22;5023139;28;20474;-74
2024/04/04 08:31:06;;;;;;;3.55;0.85;;;;;;;11.10;100.00;100116.84;5039990;28;20084;-74
2024/04/04 08:33:32;;;;;;;2.08;0.45;;;;;;;11.09;100.00;100115.22;5029582;28;20029;-74
2024/04/04 08:35:58;;;;;;;3.90;0.52;;;;;;;11.14;100.00;100119.91;5026518;28;20037;-74
2024/04/04 08:38:24;;;;;;;1.85;0.40;;;;;;;11.17;100.00;100124.72;5034614;28;20033;-74
2024/04/04 08:40:49;;;;;;;1.83;0.93;;;;;;;11.29;100.00;100131.13;5013383;28;20064;-74
2024/04/04 08:43:18;;;;;;;1.70;0.47;;;;;;;11.25;100.00;100140.25;5024336;28;20033;-74
2024/04/04 08:45:48;;;;;;;1.25;0.40;;;;;;;11.35;100.00;100140.00;5024263;28;20053;-74
2024/04/04 08:48:20;;;;;;;3.42;0.70;;;;;;;11.40;100.00;100138.47;5033807;28;20148;-74
2024/04/04 08:50:47;;;;;;;0.53;0.40;;;;;;;11.35;100.00;100127.00;5042018;28;20041;-74
2024/04/04 08:53:22;;;;;;;1.08;0.50;;;;;;;11.36;100.00;100131.19;5032501;28;20460;-74
2024/04/04 08:55:52;;;;;;;2.42;0.60;;;;;;;11.48;100.00;100150.56;5025820;28;20041;-73
2024/04/04 08:58:18;;;;;;;0.60;0.40;;;;;;;11.41;100.00;100155.66;5031631;28;21145;-74
2024/04/04 09:00:44;;;;;;;5.22;1.90;;;;;;;11.43;100.00;100137.31;5027869;28;20120;-73
2024/04/04 09:03:11;;;;;;;3.05;1.00;;;;;;;11.52;100.00;100148.44;5030342;28;20033;-73
2024/04/04 09:05:43;;;;;;;2.67;0.50;;;;;;;11.56;100.00;100147.06;5029678;28;20561;-74
2024/04/04 09:08:09;;;;;;;1.65;0.35;;;;;;;11.63;100.00;100160.97;5047324;28;20515;-74
2024/04/04 09:10:35;;;;;;;2.35;0.50;;;;;;;11.55;100.00;100161.88;5026024;28;20030;-73
2024/04/04 09:13:01;;;;;;;1.48;0.70;;;;;;;11.62;100.00;100164.53;5029702;28;20528;-73
2024/04/04 09:15:27;;;;;;;0.40;0.20;;;;;;;11.92;100.00;100159.38;5028674;28;20522;-73
2024/04/04 09:18:05;;;;;;;1.38;0.32;;;;;;;12.18;100.00;100141.50;5021728;28;20056;-74
2024/04/04 09:20:35;;;;;;;0.52;0.40;;;;;;;12.45;100.00;100147.84;5031549;28;20038;-73
2024/04/04 09:23:01;;;;;;;4.45;0.40;;;;;;;12.59;100.00;100153.16;5045701;28;20033;-74
2024/04/04 09:25:28;;;;;;;2.42;0.50;;;;;;;12.58;100.00;100152.38;5024187;28;20084;-74
2024/04/04 09:27:54;;;;;;;3.53;0.35;;;;;;;12.50;100.00;100160.28;5029141;28;20032;-73
2024/04/04 09:30:23;;;;;;;1.75;0.60;;;;;;;12.39;100.00;100171.16;5032008;28;20072;-73
2024/04/04 09:32:49;;;;;;;1.42;0.20;;;;;;;12.46;100.00;100178.03;5049328;28;20667;-73
2024/04/04 09:35:15;;;;;;;1.00;0.30;;;;;;;12.32;100.00;100181.47;5039590;28;20116;-72
2024/04/04 09:37:42;;;;;;;2.08;0.60;;;;;;;12.42;100.00;100171.59;5028383;28;20033;-72
2024/04/04 09:40:10;;;;;;;4.63;0.50;;;;;;;12.44;100.00;100187.00;5011069;28;20037;-72
2024/04/04 09:42:41;;;;;;;1.88;0.60;;;;;;;12.48;100.00;100180.44;5028708;28;20041;-72
2024/04/04 09:45:08;;;;;;;4.07;0.40;;;;;;;12.51;100.00;100184.47;5025107;28;20519;-73
2024/04/04 09:47:34;;;;;;;8.85;0.50;;;;;;;12.46;100.00;100185.03;5030655;28;20460;-72
2024/04/04 09:50:03;;;;;;;6.03;0.50;;;;;;;12.61;100.00;100185.78;5027099;28;20036;-72
2024/04/04 09:52:32;;;;;;;1.80;0.40;;;;;;;12.76;100.00;100201.34;5039304;28;20122;-72
2024/04/04 09:54:58;;;;;;;2.00;0.47;;;;;;;12.70;100.00;100191.69;5026036;28;20037;-72
2024/04/04 09:57:24;;;;;;;2.40;0.50;;;;;;;12.64;100.00;100187.25;5032338;28;20029;-73
2024/04/04 10:00:14;;;;;;;2.25;0.50;;;;;;;12.76;100.00;100188.34;5028864;28;20033;-72
2024/04/04 10:02:48;;;;;;;4.13;0.57;;;;;;;12.73;100.00;100186.09;5031053;28;20458;-72
2024/04/04 10:05:19;;;;;;;4.28;0.77;;;;;;;12.68;100.00;100193.69;5027446;28;20101;-73
2024/04/04 10:07:47;;;;;;;1.08;0.40;;;;;;;12.62;100.00;100191.78;5027014;28;20037;-73
2024/04/04 10:10:19;;;;;;;3.72;0.63;;;;;;;12.71;100.00;100201.09;5025096;28;20033;-72
2024/04/04 10:12:52;;;;;;;3.70;0.50;;;;;;;12.75;100.00;100206.75;5032968;28;20120;-72
2024/04/04 10:15:19;;;;;;;2.70;0.77;;;;;;;12.81;100.00;100204.22;5026801;28;20037;-73
2024/04/04 10:17:45;;;;;;;2.78;0.60;;;;;;;12.77;100.00;100200.38;5039783;28;20391;-73
2024/04/04 10:20:12;;;;;;;2.20;0.60;;;;;;;12.85;100.00;100207.25;5028619;28;20041;-73
2024/04/04 10:22:38;;;;;;;8.70;0.60;;;;;;;12.77;100.00;100202.16;5028146;28;21548;-73
2024/04/04 10:25:04;;;;;;;2.45;0.50;;;;;;;12.81;100.00;100186.00;5028353;28;20040;-73
2024/04/04 10:27:29;;;;;;;3.90;0.60;;;;;;;12.82;100.00;100198.00;5028355;28;20546;-73
2024/04/04 10:29:55;;;;;;;4.85;0.63;;;;;;;12.99;100.00;100205.59;5029876;28;20029;-75
2024/04/04 10:32:20;;;;;;;5.82;0.82;;;;;;;13.15;100.00;100222.75;5021742;28;20040;-73
2024/04/04 10:34:46;;;;;;;8.38;2.15;;;;;;;13.22;100.00;100216.63;5029723;28;20076;-73
2024/04/04 10:37:15;;;;;;;2.22;0.50;;;;;;;13.46;100.00;100221.63;5024272;28;21017;-73
2024/04/04 10:39:40;;;;;;;3.05;0.60;;;;;;;13.50;100.00;100209.84;5026736;28;20069;-73
2024/04/04 10:42:06;;;;;;;3.25;0.98;;;;;;;13.53;100.00;100206.88;5023206;28;20451;-73
2024/04/04 10:44:32;;;;;;;2.63;0.55;;;;;;;13.43;100.00;100213.19;5026280;28;20033;-73
2024/04/04 10:46:58;;;;;;;3.20;0.80;;;;;;;13.45;100.00;100207.81;5029498;28;20554;-74
2024/04/04 10:49:27;;;;;;;1.33;0.50;;;;;;;13.43;100.00;100207.19;5026580;28;20060;-74
2024/04/04 10:51:58;;;;;;;1.58;0.50;;;;;;;13.56;100.00;100219.50;5028833;28;20044;-74
2024/04/04 10:54:24;;;;;;;9.55;1.38;;;;;;;13.55;100.00;100215.28;5026477;28;20128;-75
2024/04/04 10:56:50;;;;;;;6.18;0.77;;;;;;;13.69;100.00;100222.19;5022133;28;20476;-74
2024/04/04 10:59:18;;;;;;;4.80;1.38;;;;;;;13.65;99.81;100214.94;5025013;28;20033;-73
2024/04/04 11:01:47;;;;;;;4.85;0.60;;;;;;;13.74;99.16;100234.66;5030060;28;20033;-74
2024/04/04 11:04:14;;;;;;;2.38;0.47;;;;;;;13.61;98.31;100243.19;5025812;28;20048;-73
2024/04/04 11:06:40;;;;;;;2.65;0.88;;;;;;;13.53;98.08;100238.91;5028467;28;20033;-74
2024/04/04 11:09:11;;;;;;;1.73;0.60;;;;;;;13.49;99.24;100242.91;5037123;28;20034;-74
2024/04/04 11:11:41;;;;;;;3.50;0.50;;;;;;;13.41;98.80;100243.84;5028669;28;20041;-74
2024/04/04 11:14:06;;;;;;;4.65;0.57;;;;;;;13.32;96.52;100249.38;5021894;28;20040;-73
2024/04/04 11:16:32;;;;;;;4.00;0.60;;;;;;;13.18;97.15;100259.59;5029357;28;20034;-74
2024/04/04 11:19:01;;;;;;;9.68;1.30;;;;;;;13.08;98.88;100263.53;5028747;28;20045;-74